Decoded Metar for KBHM (BIRMINGHAM in AL, USA) (IATA:BHM) | Meteo·Mobile Aviation Weather
aviador You're here:

KBHM Decoded Metar

BIRMINGHAM in AL, USA
Report Time2018-12-10 14:53:00
UTC Time2018-12-10 15:11:59
Flight Rules ifr IFR
Wind350° at 07 kt
W.Decomp.*RWY 36: 6.9 kt HW 0.9 kt LCW
RWY 06: 2.7 kt HW 6.4 kt LCW
W.Rank350° ranks 1
Current wind is below 350° avg. (7.2)
Visibility4828 m
Phenomena:Mist
Clouds:Broken 008 Hf
Overcast 012 Hf
Expected CloudBase > 400 ft AGL from Temp-Dew spread
Ceiling800 ft
Temp04°C (ISA -10)
Dew Point03°C (93% RH)
AAT-0.0°C
QNH1023 hPa
Density Alt-764 ft
Elevation646 ft
Report Wrong Elevation
Raw Report
METAR KBHM 101453Z 35007KT 3SM BR BKN008 OVC012 04/03 A3020 RMK AO2
CIG 005V011 SLP228 T00390028 50015=

Extra information for KBHM:More info

Metar Taf Metar & Taf Last 4 Metars F.Rules Stats Wind Profile Meteogram Temp Stats Airport Information Weather charts Add Link Nearby VenuesMetar ALERT Operation Metar Decoded Social comments

AIRNAV info for KBHM